Hovedside
METAR-TAF:

METAR-TAF

Lufthavner :

Ivalo lufthavn

Ivalo, Finland

breddegrad: 68-37N, lengdegrad: 027-25E, høyde over havet: 147 m

Gjeldene værobservasjon

Denne rapporten ble laget for 11 minutter siden, klokken 04:50 UTC
Vind 1 kt fra skiftende retning
Temperatur 1°C
Luftfuktighet 86%
Trykk 1027 hPa
Sikt 10 km eller mer
Få skyer i en høyde av 3100 ft

METAR: EFIV 250450Z AUTO VRB01KT 9999 FEW031 01/M01 Q1027

Tid: 08:01 (05:01 UTC)

Varsel

Denne rapporten ble laget for 17 timer og 31 minutter siden, klokken 11:30 UTC
Varsel gyldig fra 24. klokken 12 UTC til 24. klokken 16 UTC
Vind 5 kt fra Nord-nordøst
Sikt 10 km eller mer
Brutte skyer i en høyde av 3500 ft

TAF: EFIV 241130Z 2412/2416 03005KT 9999 BKN035

Værobservasjoner og værvarsel for over 4000 flyplasser (METAR- og TAF-rapporter).

Tilgjengelige stasjoner er representert av de røde og gule prikkene på kartet.

Hold musepekeren over prikken for å se navnet på stasjonen.

Klikk så for å se værobservasjoner og -varsler.

For å forandre kartet kan du klikke på den grønne knappen med svart kryss for å zoome inn, på den grønne knappen med strek for å zoome ut, eller på de grønne pilene for å se tilstøtende kart.


METAR-TAF: